Time;durP1;ratioP1;P1;durP2;ratioP2;P2;SDS_P1;SDS_P2;PMS_P1;PMS_P2;Temp;Humidity;BMP_temperature;BMP_pressure;BME280_temperature;BME280_humidity;BME280_pressure;Samples;Min_cycle;Max_cycle;Signal;HPM_P1;HPM_P2
2023/06/19 00:01:19;;;;;;;12.15;9.02;;;21.30;99.90;;;;;;5118894;28;20415;-59
2023/06/19 00:03:45;;;;;;;12.57;8.80;;;21.30;99.90;;;;;;5118398;28;20448;-61
2023/06/19 00:06:12;;;;;;;11.95;9.25;;;21.20;99.90;;;;;;5118784;28;20046;-59
2023/06/19 00:08:41;;;;;;;13.18;9.30;;;21.20;99.90;;;;;;5117520;28;20047;-59
2023/06/19 00:11:07;;;;;;;10.93;9.10;;;21.20;99.90;;;;;;5117639;28;20044;-58
2023/06/19 00:13:33;;;;;;;12.88;9.55;;;21.20;99.90;;;;;;5118361;28;20046;-59
2023/06/19 00:16:00;;;;;;;11.85;8.85;;;21.20;99.90;;;;;;5118177;28;20059;-59
2023/06/19 00:18:29;;;;;;;12.95;9.48;;;21.20;99.90;;;;;;5118484;28;20051;-59
2023/06/19 00:20:56;;;;;;;11.63;8.82;;;21.10;99.90;;;;;;5118671;28;20040;-59
2023/06/19 00:23:22;;;;;;;15.68;9.45;;;21.10;99.90;;;;;;5118202;28;20083;-59
2023/06/19 00:25:48;;;;;;;11.27;9.25;;;21.10;99.90;;;;;;5118656;28;20040;-59
2023/06/19 00:28:14;;;;;;;13.18;10.32;;;21.10;99.90;;;;;;5119074;28;20046;-59
2023/06/19 00:30:43;;;;;;;16.10;10.10;;;21.10;99.90;;;;;;5118294;28;20032;-59
2023/06/19 00:33:08;;;;;;;11.50;9.13;;;21.10;99.90;;;;;;5118416;28;20056;-59
2023/06/19 00:35:34;;;;;;;13.40;9.00;;;21.10;99.90;;;;;;5118557;28;20556;-59
2023/06/19 00:38:00;;;;;;;12.93;9.45;;;21.10;99.90;;;;;;5118469;28;20050;-58
2023/06/19 00:40:31;;;;;;;14.13;10.20;;;21.00;99.90;;;;;;5118482;28;20043;-59
2023/06/19 00:42:58;;;;;;;10.63;8.90;;;21.00;99.90;;;;;;5118408;28;20047;-59
2023/06/19 00:45:25;;;;;;;11.20;8.35;;;21.00;99.90;;;;;;5118554;28;20043;-59
2023/06/19 00:47:54;;;;;;;11.90;8.90;;;21.10;99.90;;;;;;5118050;28;20039;-59
2023/06/19 00:50:21;;;;;;;12.85;9.52;;;21.10;99.90;;;;;;5118614;28;20031;-59
2023/06/19 00:52:47;;;;;;;11.98;9.60;;;21.10;99.90;;;;;;5118194;28;20043;-58
2023/06/19 00:55:14;;;;;;;11.32;8.60;;;21.00;99.90;;;;;;5116817;28;20132;-58
2023/06/19 00:57:40;;;;;;;11.48;8.68;;;21.00;99.90;;;;;;5116522;28;20105;-59
2023/06/19 01:00:07;;;;;;;10.80;7.97;;;21.00;99.90;;;;;;5117957;28;20047;-59
2023/06/19 01:02:34;;;;;;;11.40;8.30;;;21.00;99.90;;;;;;5118010;28;20055;-58
2023/06/19 01:05:00;;;;;;;11.48;8.40;;;21.00;99.90;;;;;;5119859;28;20043;-59
2023/06/19 01:07:54;;;;;;;12.07;7.78;;;21.00;99.90;;;;;;5121201;28;20074;-59
2023/06/19 01:10:26;;;;;;;10.35;8.27;;;21.00;99.90;;;;;;5122078;28;20129;-58
2023/06/19 01:13:12;;;;;;;11.15;8.73;;;21.00;99.90;;;;;;5122411;28;20059;-59
2023/06/19 01:15:40;;;;;;;11.45;8.50;;;21.00;99.90;;;;;;5122593;28;20124;-59
2023/06/19 01:18:06;;;;;;;11.32;7.85;;;21.00;99.90;;;;;;5122137;28;20051;-59
2023/06/19 01:20:33;;;;;;;10.45;8.45;;;21.00;99.90;;;;;;5122126;28;20047;-59
2023/06/19 01:23:08;;;;;;;11.02;7.82;;;21.00;99.90;;;;;;5121577;28;20052;-58
2023/06/19 01:25:35;;;;;;;11.85;7.60;;;21.00;99.90;;;;;;5122198;28;20039;-59
2023/06/19 01:28:04;;;;;;;11.32;8.02;;;21.00;99.90;;;;;;5122099;28;20058;-59
2023/06/19 01:30:29;;;;;;;11.05;8.10;;;21.00;99.90;;;;;;5121557;28;20043;-59
2023/06/19 01:33:18;;;;;;;10.43;7.57;;;21.00;99.90;;;;;;5120316;28;20055;-58
2023/06/19 01:35:46;;;;;;;13.38;7.40;;;21.00;99.90;;;;;;5121928;28;20123;-59
2023/06/19 01:38:13;;;;;;;10.50;7.93;;;21.00;99.90;;;;;;5121740;28;20483;-59
2023/06/19 01:40:40;;;;;;;11.82;7.45;;;21.00;99.90;;;;;;5121722;28;20050;-59
2023/06/19 01:43:08;;;;;;;9.27;6.78;;;21.00;99.90;;;;;;5121529;28;20118;-58
2023/06/19 01:45:33;;;;;;;12.05;7.60;;;21.00;99.90;;;;;;5122284;28;20050;-58
2023/06/19 01:47:59;;;;;;;9.18;7.53;;;21.00;99.90;;;;;;5121409;28;20047;-59
2023/06/19 01:50:25;;;;;;;10.13;7.30;;;21.00;99.90;;;;;;5121898;28;20059;-58
2023/06/19 01:52:52;;;;;;;10.00;6.47;;;21.00;99.90;;;;;;5121349;28;20130;-59
2023/06/19 01:55:18;;;;;;;9.43;6.80;;;20.90;99.90;;;;;;5121564;28;20391;-58
2023/06/19 01:57:45;;;;;;;9.77;6.50;;;21.00;99.90;;;;;;5121210;28;20080;-59
2023/06/19 02:00:12;;;;;;;9.55;7.22;;;21.10;99.90;;;;;;5121152;28;20125;-58
2023/06/19 02:02:37;;;;;;;10.38;7.53;;;21.10;99.90;;;;;;5121239;28;20048;-58
2023/06/19 02:05:04;;;;;;;10.55;7.15;;;21.10;99.90;;;;;;5120951;28;20449;-58
2023/06/19 02:07:30;;;;;;;9.32;7.00;;;21.10;99.90;;;;;;5121171;28;20120;-59
2023/06/19 02:09:56;;;;;;;9.90;6.40;;;21.20;99.90;;;;;;5121213;28;20051;-59
2023/06/19 02:12:22;;;;;;;8.93;6.88;;;21.20;99.90;;;;;;5121088;28;20051;-59
2023/06/19 02:14:48;;;;;;;10.30;6.93;;;21.20;99.90;;;;;;5120584;28;20043;-59
2023/06/19 02:17:13;;;;;;;9.57;6.72;;;21.20;99.90;;;;;;5120731;28;20027;-58
2023/06/19 02:19:39;;;;;;;9.40;6.68;;;21.30;99.90;;;;;;5121143;28;20046;-59
2023/06/19 02:22:06;;;;;;;10.35;6.88;;;21.30;99.90;;;;;;5120603;28;20039;-59
2023/06/19 02:24:32;;;;;;;10.13;6.95;;;21.20;99.90;;;;;;5121143;28;20051;-58
2023/06/19 02:26:58;;;;;;;9.90;6.70;;;21.30;99.90;;;;;;5120875;28;20047;-58
2023/06/19 02:29:24;;;;;;;9.35;6.53;;;21.30;99.90;;;;;;5120507;28;20078;-58
2023/06/19 02:31:50;;;;;;;10.82;7.35;;;21.30;99.90;;;;;;5120289;28;20050;-59
2023/06/19 02:34:16;;;;;;;10.00;7.28;;;21.30;99.90;;;;;;5120730;28;20047;-59
2023/06/19 02:36:42;;;;;;;11.13;7.22;;;21.30;99.90;;;;;;5120829;28;20077;-57
2023/06/19 02:39:08;;;;;;;10.45;6.90;;;21.30;99.90;;;;;;5120698;28;20035;-59
2023/06/19 02:41:34;;;;;;;10.20;6.90;;;21.30;99.90;;;;;;5120841;28;20047;-59
2023/06/19 02:44:00;;;;;;;9.48;6.20;;;21.30;99.90;;;;;;5120626;27;20063;-58
2023/06/19 02:46:26;;;;;;;9.85;6.75;;;21.30;99.90;;;;;;5120415;28;20480;-58
2023/06/19 02:48:51;;;;;;;9.70;7.25;;;21.30;99.90;;;;;;5120360;28;20058;-59
2023/06/19 02:51:17;;;;;;;10.60;7.40;;;21.30;99.90;;;;;;5120349;28;20036;-59
2023/06/19 02:53:43;;;;;;;10.27;7.00;;;21.30;99.90;;;;;;5120648;28;20043;-58
2023/06/19 02:56:11;;;;;;;9.52;7.22;;;21.30;99.90;;;;;;5119002;28;20155;-59
2023/06/19 02:58:37;;;;;;;9.25;6.57;;;21.30;99.90;;;;;;5120719;28;20611;-58
2023/06/19 03:01:06;;;;;;;8.77;6.57;;;21.30;99.90;;;;;;5120279;28;20081;-58
2023/06/19 03:03:37;;;;;;;9.40;6.55;;;21.30;99.90;;;;;;5120117;28;20047;-58
2023/06/19 03:06:07;;;;;;;11.67;6.87;;;21.30;99.90;;;;;;5119979;28;20066;-58
2023/06/19 03:08:36;;;;;;;9.90;6.90;;;21.30;99.90;;;;;;5120102;28;20054;-58
2023/06/19 03:11:05;;;;;;;9.30;6.85;;;21.20;99.90;;;;;;5120134;28;20040;-59
2023/06/19 03:13:53;;;;;;;10.60;7.45;;;21.20;99.90;;;;;;5119822;28;20058;-58
2023/06/19 03:16:20;;;;;;;9.75;7.05;;;21.20;99.90;;;;;;5119986;28;20071;-59
2023/06/19 03:18:46;;;;;;;12.05;7.25;;;21.20;99.90;;;;;;5119849;28;20123;-59
2023/06/19 03:21:13;;;;;;;10.77;7.22;;;21.20;99.90;;;;;;5119944;28;20058;-58
2023/06/19 03:23:41;;;;;;;10.90;7.30;;;21.10;99.90;;;;;;5119383;28;20089;-59
2023/06/19 03:26:07;;;;;;;10.07;7.28;;;21.10;99.90;;;;;;5119574;28;20044;-59
2023/06/19 03:28:33;;;;;;;9.82;7.22;;;21.10;99.90;;;;;;5119341;28;20149;-59
2023/06/19 03:31:00;;;;;;;13.18;8.02;;;21.10;99.90;;;;;;5119580;28;20051;-58
2023/06/19 03:33:26;;;;;;;11.15;7.53;;;21.00;99.90;;;;;;5119240;28;20063;-58
2023/06/19 03:35:51;;;;;;;9.48;7.15;;;21.00;99.90;;;;;;5119382;28;20038;-59
2023/06/19 03:38:17;;;;;;;11.27;7.65;;;21.00;99.90;;;;;;5119334;28;20043;-58
2023/06/19 03:40:43;;;;;;;10.75;7.10;;;20.90;99.90;;;;;;5118180;28;20040;-58
2023/06/19 03:43:09;;;;;;;12.15;7.60;;;20.90;99.90;;;;;;5119458;28;20045;-58
2023/06/19 03:45:34;;;;;;;10.13;7.30;;;20.90;99.90;;;;;;5119811;28;20042;-59
2023/06/19 03:48:00;;;;;;;11.88;8.25;;;20.80;99.90;;;;;;5119355;28;20058;-59
2023/06/19 03:50:25;;;;;;;10.18;7.13;;;20.80;99.90;;;;;;5119363;28;20046;-58
2023/06/19 03:52:51;;;;;;;9.15;7.30;;;20.80;99.90;;;;;;5119187;28;20126;-58
2023/06/19 03:55:17;;;;;;;10.05;7.15;;;20.80;99.90;;;;;;5119286;28;20079;-58
2023/06/19 03:57:43;;;;;;;10.98;7.35;;;20.70;99.90;;;;;;5117721;28;20101;-59
2023/06/19 04:00:10;;;;;;;10.15;7.65;;;20.70;99.90;;;;;;5118637;28;20044;-59
2023/06/19 04:02:36;;;;;;;10.90;7.45;;;20.70;99.90;;;;;;5119201;28;20085;-58
2023/06/19 04:05:02;;;;;;;10.48;7.28;;;20.70;99.90;;;;;;5118738;28;20047;-57
2023/06/19 04:07:28;;;;;;;10.18;7.25;;;20.70;99.90;;;;;;5118952;28;20087;-59
2023/06/19 04:09:54;;;;;;;12.27;8.00;;;20.60;99.90;;;;;;5118851;28;20054;-58
2023/06/19 04:12:20;;;;;;;11.68;8.23;;;20.60;99.90;;;;;;5118757;28;20404;-58
2023/06/19 04:14:45;;;;;;;10.32;7.50;;;20.60;99.90;;;;;;5118455;28;20047;-59
2023/06/19 04:17:11;;;;;;;10.15;7.55;;;20.60;99.90;;;;;;5117859;28;20046;-58
2023/06/19 04:19:37;;;;;;;10.93;7.55;;;20.60;99.90;;;;;;5118523;28;20043;-59
2023/06/19 04:22:03;;;;;;;10.43;7.40;;;20.60;99.90;;;;;;5118045;28;20051;-58
2023/06/19 04:24:29;;;;;;;10.23;6.85;;;20.60;99.90;;;;;;5118662;28;20086;-59
2023/06/19 04:26:54;;;;;;;11.38;7.47;;;20.70;99.90;;;;;;5118383;28;20441;-58
2023/06/19 04:29:20;;;;;;;12.23;7.78;;;20.70;99.90;;;;;;5118411;28;20143;-59
2023/06/19 04:31:49;;;;;;;11.10;7.45;;;20.60;99.90;;;;;;5118287;28;20055;-59
2023/06/19 04:34:17;;;;;;;10.55;7.35;;;20.70;99.90;;;;;;5118407;28;20119;-59
2023/06/19 04:36:43;;;;;;;10.10;7.85;;;20.70;99.90;;;;;;5117488;28;20449;-59
2023/06/19 04:39:09;;;;;;;10.48;7.78;;;20.70;99.90;;;;;;5118104;28;20047;-58
2023/06/19 04:41:38;;;;;;;11.93;7.38;;;20.70;99.90;;;;;;5118668;28;20051;-59
2023/06/19 04:44:05;;;;;;;10.32;7.38;;;20.70;99.90;;;;;;5118599;28;20047;-58
2023/06/19 04:46:30;;;;;;;9.38;6.53;;;20.70;99.90;;;;;;5118229;28;20079;-58
2023/06/19 04:48:56;;;;;;;10.07;6.55;;;20.60;99.90;;;;;;5118117;28;20046;-59
2023/06/19 04:51:22;;;;;;;8.55;6.25;;;20.80;99.90;;;;;;5118057;28;20096;-58
2023/06/19 04:53:48;;;;;;;9.82;6.47;;;20.80;99.90;;;;;;5118608;28;20032;-58
2023/06/19 04:56:15;;;;;;;11.38;6.85;;;20.90;99.90;;;;;;5118208;28;20440;-59
2023/06/19 04:58:45;;;;;;;11.98;6.78;;;20.90;99.90;;;;;;5118157;28;20040;-58
2023/06/19 05:01:15;;;;;;;8.97;6.53;;;21.00;99.90;;;;;;5118251;28;20482;-58
2023/06/19 05:03:44;;;;;;;8.18;5.80;;;21.00;99.90;;;;;;5117227;28;21115;-58
2023/06/19 05:06:09;;;;;;;9.30;5.95;;;21.00;99.90;;;;;;5118134;28;20052;-59
2023/06/19 05:08:35;;;;;;;9.15;5.13;;;21.00;99.90;;;;;;5118124;28;20048;-58
2023/06/19 05:11:01;;;;;;;8.05;4.55;;;21.00;99.90;;;;;;5118534;28;20043;-59
2023/06/19 05:13:26;;;;;;;8.88;4.60;;;21.00;99.90;;;;;;5117902;28;20071;-58
2023/06/19 05:15:52;;;;;;;7.07;3.92;;;21.00;99.90;;;;;;5118101;28;20092;-60
2023/06/19 05:18:18;;;;;;;8.23;4.13;;;21.00;99.90;;;;;;5117859;28;20051;-59
2023/06/19 05:20:44;;;;;;;8.98;4.75;;;21.00;99.90;;;;;;5117756;28;20047;-56
2023/06/19 05:23:10;;;;;;;7.93;4.25;;;21.00;99.90;;;;;;5117154;28;20040;-59
2023/06/19 05:25:36;;;;;;;8.13;4.28;;;21.10;99.90;;;;;;5118015;28;20042;-59
2023/06/19 05:28:02;;;;;;;8.25;4.15;;;21.10;99.90;;;;;;5116732;28;20047;-59
2023/06/19 05:30:27;;;;;;;11.10;4.28;;;21.10;99.90;;;;;;5117481;28;20071;-58
2023/06/19 05:32:53;;;;;;;8.15;4.43;;;21.10;99.90;;;;;;5117757;28;20040;-58
2023/06/19 05:35:19;;;;;;;8.23;4.70;;;21.30;99.90;;;;;;5117981;28;20043;-59
2023/06/19 05:37:45;;;;;;;8.88;5.03;;;21.30;99.90;;;;;;5114926;28;20055;-57
2023/06/19 05:40:11;;;;;;;8.43;4.88;;;21.20;99.90;;;;;;5114226;28;20028;-59
2023/06/19 05:42:37;;;;;;;7.93;4.53;;;21.20;99.90;;;;;;5114402;28;20101;-58
2023/06/19 05:45:04;;;;;;;8.25;5.22;;;21.20;99.90;;;;;;5114625;28;20044;-59
2023/06/19 05:47:30;;;;;;;9.38;5.45;;;21.20;99.90;;;;;;5114097;28;20063;-58
2023/06/19 05:49:56;;;;;;;8.65;4.80;;;21.10;99.90;;;;;;5114516;28;20102;-58
2023/06/19 05:52:22;;;;;;;8.65;5.28;;;21.10;99.90;;;;;;5118171;28;20066;-59
2023/06/19 05:54:48;;;;;;;9.45;5.85;;;21.10;99.90;;;;;;5117993;28;20600;-58
2023/06/19 05:57:15;;;;;;;8.75;6.22;;;21.10;99.90;;;;;;5118061;28;20082;-59
2023/06/19 05:59:42;;;;;;;9.60;6.45;;;21.00;99.90;;;;;;5118339;28;20040;-58
2023/06/19 06:02:08;;;;;;;10.07;6.68;;;20.90;99.90;;;;;;5117421;28;20039;-59
2023/06/19 06:04:34;;;;;;;10.57;6.90;;;21.00;99.90;;;;;;5117687;28;20050;-59
2023/06/19 06:07:00;;;;;;;12.27;7.15;;;21.00;99.90;;;;;;5118167;28;20043;-58
2023/06/19 06:09:26;;;;;;;10.48;7.65;;;21.00;99.90;;;;;;5117270;28;20055;-58
2023/06/19 06:11:52;;;;;;;11.55;8.25;;;20.90;99.90;;;;;;5117764;28;20362;-58
2023/06/19 06:14:18;;;;;;;11.63;8.65;;;21.00;99.90;;;;;;5117207;28;20048;-58
2023/06/19 06:16:44;;;;;;;12.57;8.57;;;21.00;99.90;;;;;;5116878;28;20118;-59
2023/06/19 06:19:10;;;;;;;13.68;9.27;;;21.10;99.90;;;;;;5117467;28;20086;-59
2023/06/19 06:21:36;;;;;;;12.57;8.98;;;21.10;99.90;;;;;;5117330;28;20044;-59
2023/06/19 06:24:02;;;;;;;13.25;10.18;;;21.20;99.90;;;;;;5118008;28;20067;-57
2023/06/19 06:26:28;;;;;;;14.70;11.43;;;21.20;99.90;;;;;;5116880;28;20059;-58
2023/06/19 06:28:55;;;;;;;13.93;10.90;;;21.10;99.90;;;;;;5117453;28;20043;-57
2023/06/19 06:31:22;;;;;;;14.15;10.50;;;21.10;99.90;;;;;;5117157;28;20035;-58
2023/06/19 06:33:48;;;;;;;14.57;10.95;;;21.10;99.90;;;;;;5117035;28;20047;-58
2023/06/19 06:36:15;;;;;;;14.98;12.02;;;21.00;99.90;;;;;;5117282;28;20139;-58
2023/06/19 06:38:41;;;;;;;15.73;11.35;;;21.00;99.90;;;;;;5115345;28;20431;-58
2023/06/19 06:41:08;;;;;;;15.38;12.00;;;21.00;99.90;;;;;;5117736;28;20451;-58
2023/06/19 06:43:33;;;;;;;13.65;11.02;;;20.90;99.90;;;;;;5116725;28;20059;-59
2023/06/19 06:46:00;;;;;;;12.80;10.75;;;20.90;99.90;;;;;;5117108;28;20048;-57
2023/06/19 06:48:25;;;;;;;14.75;11.02;;;20.90;99.90;;;;;;5117066;28;20054;-59
2023/06/19 06:50:58;;;;;;;15.10;12.07;;;20.90;99.90;;;;;;5115912;28;20150;-59
2023/06/19 06:53:25;;;;;;;15.93;12.07;;;20.90;99.90;;;;;;5116403;28;20051;-57
2023/06/19 06:55:51;;;;;;;15.93;12.85;;;20.80;99.90;;;;;;5116521;28;20081;-59
2023/06/19 06:58:18;;;;;;;18.15;13.63;;;20.80;99.90;;;;;;5115287;28;20055;-58
2023/06/19 07:00:44;;;;;;;16.48;12.85;;;20.80;99.90;;;;;;5114685;28;20058;-58
2023/06/19 07:03:10;;;;;;;19.10;14.20;;;20.90;99.90;;;;;;5115516;28;20126;-58
2023/06/19 07:05:36;;;;;;;19.65;13.95;;;20.80;99.90;;;;;;5116792;28;20085;-58
2023/06/19 07:08:02;;;;;;;20.35;14.82;;;20.70;99.90;;;;;;5116799;28;20115;-58
2023/06/19 07:10:27;;;;;;;22.98;16.00;;;20.70;99.90;;;;;;5116639;28;20082;-59
2023/06/19 07:12:53;;;;;;;20.67;16.10;;;20.60;99.90;;;;;;5115703;28;20047;-59
2023/06/19 07:15:19;;;;;;;26.35;18.60;;;20.60;99.90;;;;;;5081883;28;20059;-59
2023/06/19 07:17:45;;;;;;;28.50;19.65;;;20.40;99.90;;;;;;5116299;28;20498;-58
2023/06/19 07:20:11;;;;;;;30.83;19.88;;;20.20;99.90;;;;;;5115179;28;20111;-59
2023/06/19 07:22:37;;;;;;;30.95;21.00;;;20.00;99.90;;;;;;5115104;28;20071;-59
2023/06/19 07:25:03;;;;;;;29.85;20.90;;;20.00;99.90;;;;;;5115512;28;20588;-58
2023/06/19 07:27:29;;;;;;;36.05;24.33;;;19.90;99.90;;;;;;5115727;28;20861;-58
2023/06/19 07:29:55;;;;;;;33.55;22.35;;;19.90;99.90;;;;;;5116239;28;20422;-58
2023/06/19 07:32:21;;;;;;;32.13;20.67;;;19.80;99.90;;;;;;5116182;28;20044;-58
2023/06/19 07:34:47;;;;;;;29.92;21.08;;;19.90;99.90;;;;;;5115821;28;20046;-58
2023/06/19 07:37:17;;;;;;;32.38;19.38;;;19.70;99.90;;;;;;5115966;28;20070;-59
2023/06/19 07:39:48;;;;;;;29.20;19.15;;;19.90;99.90;;;;;;5116441;28;20043;-58
2023/06/19 07:42:15;;;;;;;28.27;18.05;;;19.80;99.90;;;;;;5116071;28;20051;-58
2023/06/19 07:44:41;;;;;;;29.63;19.90;;;20.00;99.90;;;;;;5115815;28;20059;-58
2023/06/19 07:47:08;;;;;;;27.80;17.88;;;20.10;99.90;;;;;;5115633;28;20518;-58
2023/06/19 07:49:34;;;;;;;28.63;19.05;;;20.10;99.90;;;;;;5115934;28;20101;-59
2023/06/19 07:51:59;;;;;;;29.95;18.90;;;20.10;99.90;;;;;;5114110;28;20069;-58
2023/06/19 07:54:26;;;;;;;28.13;18.67;;;20.20;99.90;;;;;;5115690;28;20044;-59
2023/06/19 07:56:52;;;;;;;27.05;17.60;;;20.00;99.90;;;;;;5114441;28;20052;-59
2023/06/19 07:59:18;;;;;;;25.40;17.25;;;20.00;99.90;;;;;;5113994;28;20054;-59
2023/06/19 08:01:44;;;;;;;26.02;17.10;;;20.10;99.90;;;;;;5115299;28;20502;-58
2023/06/19 08:04:10;;;;;;;28.17;17.40;;;20.00;99.90;;;;;;5115453;28;20124;-59
2023/06/19 08:06:35;;;;;;;27.13;18.25;;;20.00;99.90;;;;;;5115872;28;20043;-59
2023/06/19 08:09:02;;;;;;;29.13;16.95;;;20.00;99.90;;;;;;5115271;28;20043;-58
2023/06/19 08:11:28;;;;;;;25.02;15.77;;;19.90;99.90;;;;;;5115588;28;20065;-58
2023/06/19 08:13:54;;;;;;;24.15;15.90;;;20.00;99.90;;;;;;5114211;28;20043;-58
2023/06/19 08:16:19;;;;;;;24.00;15.45;;;20.00;99.90;;;;;;5114723;28;20098;-58
2023/06/19 08:18:45;;;;;;;21.42;14.38;;;20.10;99.90;;;;;;5114695;28;20047;-57
2023/06/19 08:21:11;;;;;;;20.45;14.18;;;20.20;99.90;;;;;;5115338;27;20096;-59
2023/06/19 08:23:43;;;;;;;20.92;13.63;;;20.10;99.90;;;;;;5114545;28;20048;-59
2023/06/19 08:26:09;;;;;;;;;;;20.10;99.90;;;;;;5115243;28;20051;-59
2023/06/19 08:28:34;;;;;;;17.20;11.88;;;20.20;99.90;;;;;;5115490;28;19930;-59
2023/06/19 08:31:01;;;;;;;19.20;12.20;;;20.10;99.90;;;;;;5115159;28;20044;-59
2023/06/19 08:33:26;;;;;;;17.85;12.48;;;20.20;99.90;;;;;;5113254;28;20044;-58
2023/06/19 08:35:52;;;;;;;16.58;12.13;;;20.30;99.90;;;;;;5115101;28;20063;-58
2023/06/19 08:38:18;;;;;;;19.67;13.05;;;20.40;99.90;;;;;;5114682;28;20054;-58
2023/06/19 08:40:45;;;;;;;17.13;12.60;;;20.50;99.90;;;;;;5115428;28;20073;-59
2023/06/19 08:43:10;;;;;;;14.00;11.23;;;20.30;99.90;;;;;;5114822;28;20036;-58
2023/06/19 08:45:36;;;;;;;16.50;11.07;;;20.40;99.90;;;;;;5115316;28;20050;-60
2023/06/19 08:48:03;;;;;;;16.00;11.35;;;20.30;99.90;;;;;;5114695;28;20085;-60
2023/06/19 08:50:32;;;;;;;15.20;11.27;;;20.30;99.90;;;;;;5116566;28;20047;-59
2023/06/19 08:52:58;;;;;;;13.90;10.35;;;20.40;99.90;;;;;;5117518;28;20051;-59
2023/06/19 08:55:24;;;;;;;14.55;11.10;;;20.50;99.90;;;;;;5118317;28;20044;-60
2023/06/19 08:57:52;;;;;;;15.20;11.00;;;20.50;99.90;;;;;;5118229;28;20040;-60
2023/06/19 09:00:29;;;;;;;15.48;10.73;;;20.50;99.90;;;;;;5118276;28;20040;-60
2023/06/19 09:03:02;;;;;;;14.45;10.00;;;20.40;99.90;;;;;;5118106;28;20067;-60
2023/06/19 09:05:28;;;;;;;15.30;10.68;;;20.50;99.90;;;;;;5118153;28;20067;-60
2023/06/19 09:08:00;;;;;;;14.25;10.02;;;20.50;99.90;;;;;;5116589;28;20048;-60
2023/06/19 09:10:27;;;;;;;13.55;9.90;;;20.40;99.90;;;;;;5118217;28;20141;-59
2023/06/19 09:13:04;;;;;;;12.95;10.07;;;20.40;99.90;;;;;;5118078;28;20055;-59
2023/06/19 09:15:34;;;;;;;14.40;9.20;;;20.10;99.90;;;;;;5118407;28;20063;-59
2023/06/19 09:18:11;;;;;;;13.57;9.57;;;20.10;99.90;;;;;;5117771;28;20036;-59
2023/06/19 09:20:44;;;;;;;14.15;9.80;;;20.00;99.90;;;;;;5117863;28;20035;-58
2023/06/19 09:23:11;;;;;;;16.33;10.13;;;20.00;99.90;;;;;;5117601;28;20491;-59
2023/06/19 09:25:55;;;;;;;14.57;10.57;;;20.00;99.90;;;;;;5118999;28;20051;-59
2023/06/19 09:28:26;;;;;;;16.83;9.80;;;19.90;99.90;;;;;;5122283;28;20521;-59
2023/06/19 09:30:56;;;;;;;14.88;10.48;;;19.80;99.90;;;;;;5122056;28;20424;-59
2023/06/19 09:33:22;;;;;;;14.05;11.05;;;19.80;99.90;;;;;;5121508;27;20043;-60
2023/06/19 09:35:50;;;;;;;14.02;10.43;;;19.80;99.90;;;;;;5121758;28;20091;-59
2023/06/19 09:38:18;;;;;;;16.35;11.25;;;19.90;99.90;;;;;;5121764;28;20506;-59
2023/06/19 09:40:48;;;;;;;16.65;11.32;;;20.00;99.90;;;;;;5121725;28;20046;-59
2023/06/19 09:43:23;;;;;;;16.40;11.63;;;19.90;99.90;;;;;;5121580;28;20075;-59
2023/06/19 09:45:50;;;;;;;14.75;10.90;;;20.00;99.90;;;;;;5121975;28;20036;-59
2023/06/19 09:48:20;;;;;;;15.35;10.73;;;20.10;99.90;;;;;;5121611;28;20058;-58
2023/06/19 09:50:50;;;;;;;16.10;11.90;;;20.20;99.90;;;;;;5121692;28;20040;-60
2023/06/19 09:53:17;;;;;;;16.27;11.15;;;20.10;99.90;;;;;;5120918;28;20092;-60
2023/06/19 09:55:43;;;;;;;16.25;11.05;;;20.10;99.90;;;;;;5120790;28;20036;-60
2023/06/19 09:58:10;;;;;;;18.10;11.40;;;20.00;99.90;;;;;;5121766;28;20097;-60
2023/06/19 10:00:37;;;;;;;16.77;11.80;;;20.00;99.90;;;;;;5121171;28;20043;-59
2023/06/19 10:03:05;;;;;;;14.80;11.00;;;20.00;99.90;;;;;;5121079;28;20411;-59
2023/06/19 10:05:36;;;;;;;16.73;11.60;;;20.10;99.90;;;;;;5121322;28;20044;-59
2023/06/19 10:08:02;;;;;;;17.05;11.65;;;20.00;99.90;;;;;;5119613;28;20059;-59
2023/06/19 10:10:28;;;;;;;13.93;10.60;;;19.90;99.90;;;;;;5120625;28;20631;-59
2023/06/19 10:12:57;;;;;;;18.08;12.55;;;20.10;99.90;;;;;;5102308;28;20043;-59
2023/06/19 10:15:28;;;;;;;17.63;12.05;;;20.20;99.90;;;;;;5121544;28;20044;-59
2023/06/19 10:18:00;;;;;;;18.17;12.35;;;20.30;99.90;;;;;;5120739;28;20107;-59
2023/06/19 10:20:39;;;;;;;16.63;12.30;;;20.20;99.90;;;;;;5120393;28;20032;-59
2023/06/19 10:23:12;;;;;;;15.40;11.95;;;20.30;99.90;;;;;;5120207;28;20043;-57
2023/06/19 10:25:40;;;;;;;19.55;13.43;;;20.40;99.90;;;;;;5120482;28;20079;-59
2023/06/19 10:28:22;;;;;;;17.48;12.45;;;20.60;99.90;;;;;;5119518;28;20101;-59
2023/06/19 10:30:53;;;;;;;15.90;12.02;;;20.40;99.90;;;;;;5102009;28;20118;-58
2023/06/19 10:33:18;;;;;;;15.63;11.07;;;20.40;99.90;;;;;;5120141;28;20085;-59
2023/06/19 10:35:44;;;;;;;16.40;10.63;;;20.30;99.90;;;;;;5120183;28;20078;-59
2023/06/19 10:38:10;;;;;;;13.93;11.20;;;20.40;99.90;;;;;;5119179;28;20046;-59
2023/06/19 10:40:37;;;;;;;14.65;10.13;;;20.30;99.90;;;;;;5120436;28;20117;-59
2023/06/19 10:43:04;;;;;;;19.80;12.30;;;20.50;99.90;;;;;;5120277;28;20050;-60
2023/06/19 10:45:29;;;;;;;16.10;11.90;;;20.30;99.90;;;;;;5118960;28;20633;-59
2023/06/19 10:47:55;;;;;;;17.30;12.63;;;20.40;99.90;;;;;;5120203;28;20073;-60
2023/06/19 10:50:22;;;;;;;15.70;11.77;;;20.30;99.90;;;;;;5120486;28;20071;-60
2023/06/19 10:52:54;;;;;;;17.30;12.25;;;20.50;99.90;;;;;;5120154;28;20433;-59
2023/06/19 10:55:19;;;;;;;18.77;13.30;;;20.80;99.90;;;;;;5118653;28;20043;-57
2023/06/19 10:57:47;;;;;;;17.73;12.40;;;20.70;99.90;;;;;;5120336;28;20118;-59
2023/06/19 11:00:26;;;;;;;16.40;12.13;;;20.90;99.90;;;;;;5119720;28;20715;-59
2023/06/19 11:02:52;;;;;;;15.57;11.57;;;21.00;99.90;;;;;;5119965;28;20050;-59
2023/06/19 11:05:20;;;;;;;16.65;12.30;;;21.20;99.90;;;;;;5119888;28;20102;-59
2023/06/19 11:07:57;;;;;;;14.32;11.43;;;20.90;99.90;;;;;;5119814;28;20408;-59
2023/06/19 11:10:24;;;;;;;15.98;11.65;;;20.70;99.90;;;;;;5119311;28;20044;-59
2023/06/19 11:12:57;;;;;;;18.75;12.70;;;20.90;99.90;;;;;;5119506;28;20043;-59
2023/06/19 11:15:33;;;;;;;18.48;12.52;;;21.00;99.90;;;;;;5117997;28;20047;-59
2023/06/19 11:18:01;;;;;;;18.17;12.52;;;21.30;99.90;;;;;;5119029;27;20067;-59
2023/06/19 11:20:27;;;;;;;18.77;13.50;;;21.10;99.90;;;;;;5118203;28;20044;-60
2023/06/19 11:22:59;;;;;;;18.00;14.15;;;21.10;99.90;;;;;;5119181;28;20039;-59
2023/06/19 11:25:36;;;;;;;17.63;12.82;;;21.10;99.90;;;;;;5119493;28;20054;-59
2023/06/19 11:28:02;;;;;;;18.88;12.90;;;21.20;99.90;;;;;;5119632;28;20047;-60
2023/06/19 11:30:33;;;;;;;18.70;13.85;;;21.30;99.90;;;;;;5119307;28;20909;-60
2023/06/19 11:32:58;;;;;;;18.35;13.23;;;21.20;99.90;;;;;;5119454;28;20047;-59
2023/06/19 11:35:25;;;;;;;19.40;13.95;;;21.20;99.90;;;;;;5117295;28;20044;-59
2023/06/19 11:37:51;;;;;;;19.67;13.57;;;21.30;99.90;;;;;;5117914;28;20043;-59
2023/06/19 11:40:19;;;;;;;17.15;12.95;;;21.30;99.90;;;;;;5118896;28;20074;-59
2023/06/19 11:42:46;;;;;;;16.55;12.52;;;21.40;99.90;;;;;;5119023;28;20096;-59
2023/06/19 11:45:12;;;;;;;16.02;12.43;;;21.60;99.90;;;;;;5119531;28;20095;-59
2023/06/19 11:47:37;;;;;;;16.55;13.10;;;21.70;99.90;;;;;;5118103;28;20145;-59
2023/06/19 11:50:07;;;;;;;17.48;12.55;;;21.80;99.90;;;;;;5118765;28;20051;-59
2023/06/19 11:52:33;;;;;;;17.50;14.05;;;22.20;99.90;;;;;;5117552;28;20112;-60
2023/06/19 11:54:58;;;;;;;18.50;14.27;;;21.90;99.90;;;;;;5117450;28;20056;-60
2023/06/19 11:57:26;;;;;;;18.77;15.30;;;21.80;99.90;;;;;;5117564;28;20082;-59
2023/06/19 11:59:51;;;;;;;20.25;15.35;;;21.50;99.90;;;;;;5118743;28;20047;-59
2023/06/19 12:02:17;;;;;;;21.75;16.75;;;22.10;99.90;;;;;;5118974;28;20051;-59
2023/06/19 12:04:43;;;;;;;21.83;16.17;;;22.00;99.90;;;;;;5100357;28;20047;-59
2023/06/19 12:07:09;;;;;;;17.45;13.60;;;22.00;99.90;;;;;;5119099;28;20059;-59
2023/06/19 12:09:35;;;;;;;19.92;15.27;;;21.90;99.90;;;;;;5118576;28;20040;-59
2023/06/19 12:12:01;;;;;;;18.38;15.07;;;21.80;99.90;;;;;;5118651;28;20043;-59
2023/06/19 12:14:26;;;;;;;17.23;12.88;;;22.20;99.90;;;;;;5118517;28;20042;-60
2023/06/19 12:16:52;;;;;;;17.02;11.90;;;22.00;99.90;;;;;;5118477;28;20442;-59
2023/06/19 12:19:18;;;;;;;20.98;13.55;;;21.60;99.90;;;;;;5118625;28;20209;-60
2023/06/19 12:21:43;;;;;;;19.73;14.30;;;22.20;99.90;;;;;;5116772;28;20039;-60
2023/06/19 12:24:09;;;;;;;19.85;13.15;;;22.30;99.90;;;;;;5118600;28;20064;-59
2023/06/19 12:26:39;;;;;;;18.27;14.15;;;22.10;99.90;;;;;;5118398;28;20158;-59
2023/06/19 12:29:06;;;;;;;17.70;13.75;;;22.50;99.90;;;;;;5118041;28;20091;-60
2023/06/19 12:31:33;;;;;;;20.73;15.32;;;22.20;99.90;;;;;;5116706;28;20047;-59
2023/06/19 12:34:01;;;;;;;19.00;13.98;;;22.20;99.90;;;;;;5117989;28;20035;-59